sensor_id;sensor_type;location;lat;lon;timestamp;temperature;humidity
47606;DHT22;55448;51.330;4.946;2022-07-06T00:02:03;13.40;96.50
47606;DHT22;55448;51.330;4.946;2022-07-06T00:04:29;13.50;96.20
47606;DHT22;55448;51.330;4.946;2022-07-06T00:06:54;13.40;96.50
47606;DHT22;55448;51.330;4.946;2022-07-06T00:09:20;13.20;96.80
47606;DHT22;55448;51.330;4.946;2022-07-06T00:11:46;13.20;97.10
47606;DHT22;55448;51.330;4.946;2022-07-06T00:14:11;13.10;97.20
47606;DHT22;55448;51.330;4.946;2022-07-06T00:16:37;13.00;97.50
47606;DHT22;55448;51.330;4.946;2022-07-06T00:19:03;13.00;97.40
47606;DHT22;55448;51.330;4.946;2022-07-06T00:21:28;12.90;97.60
47606;DHT22;55448;51.330;4.946;2022-07-06T00:23:54;12.80;98.00
47606;DHT22;55448;51.330;4.946;2022-07-06T00:26:20;12.60;98.40
47606;DHT22;55448;51.330;4.946;2022-07-06T00:28:46;12.60;98.50
47606;DHT22;55448;51.330;4.946;2022-07-06T00:31:15;12.50;98.80
47606;DHT22;55448;51.330;4.946;2022-07-06T00:33:40;12.40;99.20
47606;DHT22;55448;51.330;4.946;2022-07-06T00:36:06;12.30;99.50
47606;DHT22;55448;51.330;4.946;2022-07-06T00:38:32;12.10;99.90
47606;DHT22;55448;51.330;4.946;2022-07-06T00:40:58;12.20;99.90
47606;DHT22;55448;51.330;4.946;2022-07-06T00:43:23;12.00;99.90
47606;DHT22;55448;51.330;4.946;2022-07-06T00:45:49;12.00;99.90
47606;DHT22;55448;51.330;4.946;2022-07-06T00:48:15;12.10;99.90
47606;DHT22;55448;51.330;4.946;2022-07-06T00:50:41;12.20;99.90
47606;DHT22;55448;51.330;4.946;2022-07-06T00:53:07;12.30;99.90
47606;DHT22;55448;51.330;4.946;2022-07-06T00:55:36;12.20;99.80
47606;DHT22;55448;51.330;4.946;2022-07-06T00:58:05;12.20;99.80
47606;DHT22;55448;51.330;4.946;2022-07-06T01:00:31;12.00;99.90
47606;DHT22;55448;51.330;4.946;2022-07-06T01:02:57;11.80;99.90
47606;DHT22;55448;51.330;4.946;2022-07-06T01:05:23;11.70;99.90
47606;DHT22;55448;51.330;4.946;2022-07-06T01:07:51;11.70;99.90
47606;DHT22;55448;51.330;4.946;2022-07-06T01:10:18;11.70;99.90
47606;DHT22;55448;51.330;4.946;2022-07-06T01:12:46;11.70;99.90
47606;DHT22;55448;51.330;4.946;2022-07-06T01:15:17;11.70;99.90
47606;DHT22;55448;51.330;4.946;2022-07-06T01:17:43;11.70;99.90
47606;DHT22;55448;51.330;4.946;2022-07-06T01:20:16;11.70;99.90
47606;DHT22;55448;51.330;4.946;2022-07-06T01:22:43;11.80;99.90
47606;DHT22;55448;51.330;4.946;2022-07-06T01:25:10;11.80;99.90
47606;DHT22;55448;51.330;4.946;2022-07-06T01:27:37;11.70;99.90
47606;DHT22;55448;51.330;4.946;2022-07-06T01:30:09;11.70;99.90
47606;DHT22;55448;51.330;4.946;2022-07-06T01:32:36;11.70;99.90
47606;DHT22;55448;51.330;4.946;2022-07-06T01:35:02;11.80;99.90
47606;DHT22;55448;51.330;4.946;2022-07-06T01:37:28;11.90;99.90
47606;DHT22;55448;51.330;4.946;2022-07-06T01:39:57;11.80;99.90
47606;DHT22;55448;51.330;4.946;2022-07-06T01:42:22;11.80;99.90
47606;DHT22;55448;51.330;4.946;2022-07-06T01:44:48;11.70;99.90
47606;DHT22;55448;51.330;4.946;2022-07-06T01:47:14;11.70;99.90
47606;DHT22;55448;51.330;4.946;2022-07-06T01:49:39;11.60;99.90
47606;DHT22;55448;51.330;4.946;2022-07-06T01:52:05;11.50;99.90
47606;DHT22;55448;51.330;4.946;2022-07-06T01:54:31;11.50;99.90
47606;DHT22;55448;51.330;4.946;2022-07-06T01:56:57;11.50;99.90
47606;DHT22;55448;51.330;4.946;2022-07-06T01:59:22;11.40;99.90
47606;DHT22;55448;51.330;4.946;2022-07-06T02:01:48;11.40;99.90
47606;DHT22;55448;51.330;4.946;2022-07-06T02:04:14;11.50;99.90
47606;DHT22;55448;51.330;4.946;2022-07-06T02:06:39;11.60;99.90
47606;DHT22;55448;51.330;4.946;2022-07-06T02:09:05;11.50;99.90
47606;DHT22;55448;51.330;4.946;2022-07-06T02:11:30;11.40;99.90
47606;DHT22;55448;51.330;4.946;2022-07-06T02:13:56;11.40;99.90
47606;DHT22;55448;51.330;4.946;2022-07-06T02:16:22;11.40;99.90
47606;DHT22;55448;51.330;4.946;2022-07-06T02:18:47;11.50;99.90
47606;DHT22;55448;51.330;4.946;2022-07-06T02:21:13;11.60;99.90
47606;DHT22;55448;51.330;4.946;2022-07-06T02:23:39;11.70;99.90
47606;DHT22;55448;51.330;4.946;2022-07-06T02:26:04;11.70;99.90
47606;DHT22;55448;51.330;4.946;2022-07-06T02:28:30;11.60;99.90
47606;DHT22;55448;51.330;4.946;2022-07-06T02:30:56;11.60;99.90
47606;DHT22;55448;51.330;4.946;2022-07-06T02:33:21;11.50;99.90
47606;DHT22;55448;51.330;4.946;2022-07-06T02:35:47;11.30;99.90
47606;DHT22;55448;51.330;4.946;2022-07-06T02:38:13;11.30;99.90
47606;DHT22;55448;51.330;4.946;2022-07-06T02:40:39;11.30;99.90
47606;DHT22;55448;51.330;4.946;2022-07-06T02:43:05;11.40;99.90
47606;DHT22;55448;51.330;4.946;2022-07-06T02:45:31;11.50;99.90
47606;DHT22;55448;51.330;4.946;2022-07-06T02:47:57;11.50;99.90
47606;DHT22;55448;51.330;4.946;2022-07-06T02:50:23;11.50;99.90
47606;DHT22;55448;51.330;4.946;2022-07-06T02:52:49;11.50;99.90
47606;DHT22;55448;51.330;4.946;2022-07-06T02:55:15;11.50;99.90
47606;DHT22;55448;51.330;4.946;2022-07-06T02:57:41;11.40;99.90
47606;DHT22;55448;51.330;4.946;2022-07-06T03:00:07;11.20;99.90
47606;DHT22;55448;51.330;4.946;2022-07-06T03:02:34;11.20;99.90
47606;DHT22;55448;51.330;4.946;2022-07-06T03:05:00;11.10;99.90
47606;DHT22;55448;51.330;4.946;2022-07-06T03:07:26;11.00;99.90
47606;DHT22;55448;51.330;4.946;2022-07-06T03:09:51;10.90;99.90
47606;DHT22;55448;51.330;4.946;2022-07-06T03:12:17;10.80;99.90
47606;DHT22;55448;51.330;4.946;2022-07-06T03:14:43;10.80;99.90
47606;DHT22;55448;51.330;4.946;2022-07-06T03:17:09;10.80;99.90
47606;DHT22;55448;51.330;4.946;2022-07-06T03:19:34;10.80;99.90
47606;DHT22;55448;51.330;4.946;2022-07-06T03:22:00;10.80;99.90
47606;DHT22;55448;51.330;4.946;2022-07-06T03:24:26;10.80;99.90
47606;DHT22;55448;51.330;4.946;2022-07-06T03:26:52;10.80;99.90
47606;DHT22;55448;51.330;4.946;2022-07-06T03:29:17;10.90;99.90
47606;DHT22;55448;51.330;4.946;2022-07-06T03:31:43;11.00;99.90
47606;DHT22;55448;51.330;4.946;2022-07-06T03:34:09;11.20;99.90
47606;DHT22;55448;51.330;4.946;2022-07-06T03:36:35;11.20;99.90
47606;DHT22;55448;51.330;4.946;2022-07-06T03:39:00;11.20;99.90
47606;DHT22;55448;51.330;4.946;2022-07-06T03:41:26;11.10;99.90
47606;DHT22;55448;51.330;4.946;2022-07-06T03:43:52;11.10;99.90
47606;DHT22;55448;51.330;4.946;2022-07-06T03:46:17;11.20;99.90
47606;DHT22;55448;51.330;4.946;2022-07-06T03:48:43;11.20;99.90
47606;DHT22;55448;51.330;4.946;2022-07-06T03:51:09;11.30;99.90
47606;DHT22;55448;51.330;4.946;2022-07-06T03:53:36;11.20;99.90
47606;DHT22;55448;51.330;4.946;2022-07-06T03:56:02;11.30;99.90
47606;DHT22;55448;51.330;4.946;2022-07-06T03:58:46;11.30;99.90
47606;DHT22;55448;51.330;4.946;2022-07-06T04:01:12;11.40;99.90
47606;DHT22;55448;51.330;4.946;2022-07-06T04:03:37;11.40;99.90
47606;DHT22;55448;51.330;4.946;2022-07-06T04:06:04;11.40;99.90
47606;DHT22;55448;51.330;4.946;2022-07-06T04:08:30;11.40;99.90
47606;DHT22;55448;51.330;4.946;2022-07-06T04:10:55;11.40;99.90
47606;DHT22;55448;51.330;4.946;2022-07-06T04:13:21;11.50;99.90
47606;DHT22;55448;51.330;4.946;2022-07-06T04:15:47;11.50;99.90
47606;DHT22;55448;51.330;4.946;2022-07-06T04:18:13;11.60;99.90
47606;DHT22;55448;51.330;4.946;2022-07-06T04:20:38;11.80;99.90
47606;DHT22;55448;51.330;4.946;2022-07-06T04:23:04;12.00;99.90
47606;DHT22;55448;51.330;4.946;2022-07-06T04:25:30;12.20;99.90
47606;DHT22;55448;51.330;4.946;2022-07-06T04:27:55;12.30;99.90
47606;DHT22;55448;51.330;4.946;2022-07-06T04:30:28;12.40;99.90
47606;DHT22;55448;51.330;4.946;2022-07-06T04:32:53;12.50;99.90
47606;DHT22;55448;51.330;4.946;2022-07-06T04:35:20;12.60;99.90
47606;DHT22;55448;51.330;4.946;2022-07-06T04:37:46;12.70;99.90
47606;DHT22;55448;51.330;4.946;2022-07-06T04:40:13;12.80;99.90
47606;DHT22;55448;51.330;4.946;2022-07-06T04:42:38;12.90;99.90
47606;DHT22;55448;51.330;4.946;2022-07-06T04:45:05;13.10;99.40
47606;DHT22;55448;51.330;4.946;2022-07-06T04:47:30;13.10;99.90
47606;DHT22;55448;51.330;4.946;2022-07-06T04:49:56;13.20;99.40
47606;DHT22;55448;51.330;4.946;2022-07-06T04:52:22;13.30;99.50
47606;DHT22;55448;51.330;4.946;2022-07-06T04:54:48;13.40;99.30
47606;DHT22;55448;51.330;4.946;2022-07-06T04:57:13;13.60;99.10
47606;DHT22;55448;51.330;4.946;2022-07-06T04:59:39;13.60;98.80
47606;DHT22;55448;51.330;4.946;2022-07-06T05:02:05;13.70;98.80
47606;DHT22;55448;51.330;4.946;2022-07-06T05:04:31;13.80;98.50
47606;DHT22;55448;51.330;4.946;2022-07-06T05:06:57;13.80;98.40
47606;DHT22;55448;51.330;4.946;2022-07-06T05:09:22;14.00;98.40
47606;DHT22;55448;51.330;4.946;2022-07-06T05:11:48;14.00;98.40
47606;DHT22;55448;51.330;4.946;2022-07-06T05:14:14;14.30;98.50
47606;DHT22;55448;51.330;4.946;2022-07-06T05:16:39;14.30;98.20
47606;DHT22;55448;51.330;4.946;2022-07-06T05:19:05;14.40;98.20
47606;DHT22;55448;51.330;4.946;2022-07-06T05:21:31;14.50;98.20
47606;DHT22;55448;51.330;4.946;2022-07-06T05:23:56;14.50;97.80
47606;DHT22;55448;51.330;4.946;2022-07-06T05:26:22;14.70;97.70
47606;DHT22;55448;51.330;4.946;2022-07-06T05:28:48;14.80;97.90
47606;DHT22;55448;51.330;4.946;2022-07-06T05:31:13;15.00;97.60
47606;DHT22;55448;51.330;4.946;2022-07-06T05:33:39;15.10;97.50
47606;DHT22;55448;51.330;4.946;2022-07-06T05:36:05;15.50;97.50
47606;DHT22;55448;51.330;4.946;2022-07-06T05:38:31;15.80;96.40
47606;DHT22;55448;51.330;4.946;2022-07-06T05:40:57;15.80;96.70
47606;DHT22;55448;51.330;4.946;2022-07-06T05:43:23;15.90;96.50
47606;DHT22;55448;51.330;4.946;2022-07-06T05:45:49;16.10;96.20
47606;DHT22;55448;51.330;4.946;2022-07-06T05:48:15;16.30;94.70
47606;DHT22;55448;51.330;4.946;2022-07-06T05:50:59;16.50;94.80
47606;DHT22;55448;51.330;4.946;2022-07-06T05:53:25;16.80;94.20
47606;DHT22;55448;51.330;4.946;2022-07-06T05:55:50;16.60;94.20
47606;DHT22;55448;51.330;4.946;2022-07-06T05:58:16;16.60;94.00
47606;DHT22;55448;51.330;4.946;2022-07-06T06:00:42;16.60;94.60
47606;DHT22;55448;51.330;4.946;2022-07-06T06:03:09;16.70;94.70
47606;DHT22;55448;51.330;4.946;2022-07-06T06:05:34;16.70;93.80
47606;DHT22;55448;51.330;4.946;2022-07-06T06:08:00;16.70;93.20
47606;DHT22;55448;51.330;4.946;2022-07-06T06:10:26;16.40;93.30
47606;DHT22;55448;51.330;4.946;2022-07-06T06:12:52;16.50;94.10
47606;DHT22;55448;51.330;4.946;2022-07-06T06:15:18;16.60;93.30
47606;DHT22;55448;51.330;4.946;2022-07-06T06:17:44;16.90;92.40
47606;DHT22;55448;51.330;4.946;2022-07-06T06:20:12;17.30;91.80
47606;DHT22;55448;51.330;4.946;2022-07-06T06:22:54;17.30;92.30
47606;DHT22;55448;51.330;4.946;2022-07-06T06:25:36;17.40;91.60
47606;DHT22;55448;51.330;4.946;2022-07-06T06:28:03;17.70;90.70
47606;DHT22;55448;51.330;4.946;2022-07-06T06:30:30;17.40;90.30
47606;DHT22;55448;51.330;4.946;2022-07-06T06:33:11;17.20;90.80
47606;DHT22;55448;51.330;4.946;2022-07-06T06:35:47;17.40;91.00
47606;DHT22;55448;51.330;4.946;2022-07-06T06:38:14;17.60;90.20
47606;DHT22;55448;51.330;4.946;2022-07-06T06:40:40;17.70;90.40
47606;DHT22;55448;51.330;4.946;2022-07-06T06:43:06;17.80;89.80
47606;DHT22;55448;51.330;4.946;2022-07-06T06:45:32;17.80;89.20
47606;DHT22;55448;51.330;4.946;2022-07-06T06:47:58;17.70;89.40
47606;DHT22;55448;51.330;4.946;2022-07-06T06:50:24;17.60;89.50
47606;DHT22;55448;51.330;4.946;2022-07-06T06:52:50;17.80;90.10
47606;DHT22;55448;51.330;4.946;2022-07-06T06:55:17;18.00;87.70
47606;DHT22;55448;51.330;4.946;2022-07-06T06:57:43;18.50;86.60
47606;DHT22;55448;51.330;4.946;2022-07-06T07:00:10;18.10;85.40
47606;DHT22;55448;51.330;4.946;2022-07-06T07:02:35;18.20;86.40
47606;DHT22;55448;51.330;4.946;2022-07-06T07:05:02;18.60;84.20
47606;DHT22;55448;51.330;4.946;2022-07-06T07:07:28;18.70;83.50
47606;DHT22;55448;51.330;4.946;2022-07-06T07:09:53;18.60;81.90
47606;DHT22;55448;51.330;4.946;2022-07-06T07:12:19;18.40;80.30
47606;DHT22;55448;51.330;4.946;2022-07-06T07:14:45;18.50;81.80
47606;DHT22;55448;51.330;4.946;2022-07-06T07:17:11;19.10;81.00
47606;DHT22;55448;51.330;4.946;2022-07-06T07:19:37;19.50;80.00
47606;DHT22;55448;51.330;4.946;2022-07-06T07:22:03;19.60;79.20
47606;DHT22;55448;51.330;4.946;2022-07-06T07:24:29;19.10;82.00
47606;DHT22;55448;51.330;4.946;2022-07-06T07:26:55;19.00;79.80
47606;DHT22;55448;51.330;4.946;2022-07-06T07:29:21;19.10;77.30
47606;DHT22;55448;51.330;4.946;2022-07-06T07:31:47;19.40;73.90
47606;DHT22;55448;51.330;4.946;2022-07-06T07:34:12;19.50;75.00
47606;DHT22;55448;51.330;4.946;2022-07-06T07:36:38;19.10;75.00
47606;DHT22;55448;51.330;4.946;2022-07-06T07:39:04;19.30;74.10
47606;DHT22;55448;51.330;4.946;2022-07-06T07:41:30;18.90;73.90
47606;DHT22;55448;51.330;4.946;2022-07-06T07:43:56;18.70;76.00
47606;DHT22;55448;51.330;4.946;2022-07-06T07:46:22;18.60;75.80
47606;DHT22;55448;51.330;4.946;2022-07-06T07:48:48;18.80;76.10
47606;DHT22;55448;51.330;4.946;2022-07-06T07:51:13;18.80;75.80
47606;DHT22;55448;51.330;4.946;2022-07-06T07:53:39;19.40;74.20
47606;DHT22;55448;51.330;4.946;2022-07-06T07:56:05;19.90;71.80
47606;DHT22;55448;51.330;4.946;2022-07-06T07:58:31;20.30;70.50
47606;DHT22;55448;51.330;4.946;2022-07-06T08:00:56;20.60;69.80
47606;DHT22;55448;51.330;4.946;2022-07-06T08:03:22;20.40;70.50
47606;DHT22;55448;51.330;4.946;2022-07-06T08:05:48;20.80;69.00
47606;DHT22;55448;51.330;4.946;2022-07-06T08:08:15;20.60;66.70
47606;DHT22;55448;51.330;4.946;2022-07-06T08:10:41;20.60;66.60
47606;DHT22;55448;51.330;4.946;2022-07-06T08:13:07;20.30;66.90
47606;DHT22;55448;51.330;4.946;2022-07-06T08:15:35;19.80;67.40
47606;DHT22;55448;51.330;4.946;2022-07-06T08:18:01;19.60;67.60
47606;DHT22;55448;51.330;4.946;2022-07-06T08:20:26;20.10;68.00
47606;DHT22;55448;51.330;4.946;2022-07-06T08:22:52;20.40;65.90
47606;DHT22;55448;51.330;4.946;2022-07-06T08:25:18;21.00;65.10
47606;DHT22;55448;51.330;4.946;2022-07-06T08:27:44;21.40;64.10
47606;DHT22;55448;51.330;4.946;2022-07-06T08:30:10;21.50;62.40
47606;DHT22;55448;51.330;4.946;2022-07-06T08:32:43;20.70;65.70
47606;DHT22;55448;51.330;4.946;2022-07-06T08:35:09;21.30;63.20
47606;DHT22;55448;51.330;4.946;2022-07-06T08:37:35;21.10;62.80
47606;DHT22;55448;51.330;4.946;2022-07-06T08:40:02;21.30;64.10
47606;DHT22;55448;51.330;4.946;2022-07-06T08:42:33;21.60;63.00
47606;DHT22;55448;51.330;4.946;2022-07-06T08:45:00;21.20;62.10
47606;DHT22;55448;51.330;4.946;2022-07-06T08:47:27;21.30;62.30
47606;DHT22;55448;51.330;4.946;2022-07-06T08:49:53;21.50;62.00
47606;DHT22;55448;51.330;4.946;2022-07-06T08:52:19;21.60;62.00
47606;DHT22;55448;51.330;4.946;2022-07-06T08:54:45;21.30;63.50
47606;DHT22;55448;51.330;4.946;2022-07-06T08:57:11;21.30;64.00
47606;DHT22;55448;51.330;4.946;2022-07-06T08:59:38;20.80;63.90
47606;DHT22;55448;51.330;4.946;2022-07-06T09:02:04;20.30;64.40
47606;DHT22;55448;51.330;4.946;2022-07-06T09:04:32;20.50;64.10
47606;DHT22;55448;51.330;4.946;2022-07-06T09:06:59;21.10;62.60
47606;DHT22;55448;51.330;4.946;2022-07-06T09:09:25;21.40;61.80
47606;DHT22;55448;51.330;4.946;2022-07-06T09:11:51;21.60;60.30
47606;DHT22;55448;51.330;4.946;2022-07-06T09:14:17;21.90;60.50
47606;DHT22;55448;51.330;4.946;2022-07-06T09:16:45;21.80;60.80
47606;DHT22;55448;51.330;4.946;2022-07-06T09:19:12;21.60;60.00
47606;DHT22;55448;51.330;4.946;2022-07-06T09:21:39;21.80;59.80
47606;DHT22;55448;51.330;4.946;2022-07-06T09:24:09;21.50;60.10
47606;DHT22;55448;51.330;4.946;2022-07-06T09:26:35;21.70;60.30
47606;DHT22;55448;51.330;4.946;2022-07-06T09:29:01;21.80;59.80
47606;DHT22;55448;51.330;4.946;2022-07-06T09:31:27;22.00;59.30
47606;DHT22;55448;51.330;4.946;2022-07-06T09:33:58;22.30;57.20
47606;DHT22;55448;51.330;4.946;2022-07-06T09:36:40;22.60;57.70
47606;DHT22;55448;51.330;4.946;2022-07-06T09:41:49;22.70;57.50
47606;DHT22;55448;51.330;4.946;2022-07-06T09:44:25;22.10;57.50
47606;DHT22;55448;51.330;4.946;2022-07-06T09:46:51;22.00;60.50
47606;DHT22;55448;51.330;4.946;2022-07-06T09:49:18;21.60;59.70
47606;DHT22;55448;51.330;4.946;2022-07-06T09:51:46;21.40;60.10
47606;DHT22;55448;51.330;4.946;2022-07-06T09:54:12;21.50;62.20
47606;DHT22;55448;51.330;4.946;2022-07-06T09:56:38;22.00;60.40
47606;DHT22;55448;51.330;4.946;2022-07-06T09:59:21;22.00;59.60
47606;DHT22;55448;51.330;4.946;2022-07-06T10:01:48;22.50;58.80
47606;DHT22;55448;51.330;4.946;2022-07-06T10:04:16;22.90;57.80
47606;DHT22;55448;51.330;4.946;2022-07-06T10:06:44;22.20;56.50
47606;DHT22;55448;51.330;4.946;2022-07-06T10:09:11;22.30;58.00
47606;DHT22;55448;51.330;4.946;2022-07-06T10:12:00;21.70;60.20
47606;DHT22;55448;51.330;4.946;2022-07-06T10:14:34;21.40;63.30
47606;DHT22;55448;51.330;4.946;2022-07-06T10:17:02;21.20;60.70
47606;DHT22;55448;51.330;4.946;2022-07-06T10:19:30;21.80;59.40
47606;DHT22;55448;51.330;4.946;2022-07-06T10:22:00;21.30;61.50
47606;DHT22;55448;51.330;4.946;2022-07-06T10:24:28;21.60;61.90
47606;DHT22;55448;51.330;4.946;2022-07-06T10:26:55;21.70;58.70
47606;DHT22;55448;51.330;4.946;2022-07-06T10:29:21;21.50;57.80
47606;DHT22;55448;51.330;4.946;2022-07-06T10:31:47;21.90;60.00
47606;DHT22;55448;51.330;4.946;2022-07-06T10:34:15;22.20;58.70
47606;DHT22;55448;51.330;4.946;2022-07-06T10:36:44;22.50;58.20
47606;DHT22;55448;51.330;4.946;2022-07-06T10:39:13;22.90;57.20
47606;DHT22;55448;51.330;4.946;2022-07-06T10:41:58;22.80;57.30
47606;DHT22;55448;51.330;4.946;2022-07-06T10:44:25;22.10;57.80
47606;DHT22;55448;51.330;4.946;2022-07-06T10:46:58;21.60;58.80
47606;DHT22;55448;51.330;4.946;2022-07-06T10:49:25;21.40;58.90
47606;DHT22;55448;51.330;4.946;2022-07-06T10:51:52;21.60;61.10
47606;DHT22;55448;51.330;4.946;2022-07-06T10:54:19;21.30;62.50
47606;DHT22;55448;51.330;4.946;2022-07-06T10:56:48;21.10;61.30
47606;DHT22;55448;51.330;4.946;2022-07-06T10:59:23;20.70;60.70
47606;DHT22;55448;51.330;4.946;2022-07-06T11:02:17;20.50;62.40
47606;DHT22;55448;51.330;4.946;2022-07-06T11:04:45;20.60;62.60
47606;DHT22;55448;51.330;4.946;2022-07-06T11:07:14;20.70;63.60
47606;DHT22;55448;51.330;4.946;2022-07-06T11:09:40;21.10;60.00
47606;DHT22;55448;51.330;4.946;2022-07-06T11:12:19;21.30;63.10
47606;DHT22;55448;51.330;4.946;2022-07-06T11:14:48;21.70;60.70
47606;DHT22;55448;51.330;4.946;2022-07-06T11:17:15;22.10;60.20
47606;DHT22;55448;51.330;4.946;2022-07-06T11:19:57;22.30;59.80
47606;DHT22;55448;51.330;4.946;2022-07-06T11:22:24;22.70;57.60
47606;DHT22;55448;51.330;4.946;2022-07-06T11:24:52;22.80;57.10
47606;DHT22;55448;51.330;4.946;2022-07-06T11:27:18;22.80;57.70
47606;DHT22;55448;51.330;4.946;2022-07-06T11:29:45;22.50;57.90
47606;DHT22;55448;51.330;4.946;2022-07-06T11:32:11;22.60;58.50
47606;DHT22;55448;51.330;4.946;2022-07-06T11:34:41;22.60;59.60
47606;DHT22;55448;51.330;4.946;2022-07-06T11:37:12;22.50;57.50
47606;DHT22;55448;51.330;4.946;2022-07-06T11:39:43;22.20;59.90
47606;DHT22;55448;51.330;4.946;2022-07-06T11:42:10;22.10;59.40
47606;DHT22;55448;51.330;4.946;2022-07-06T11:44:37;22.70;58.20
47606;DHT22;55448;51.330;4.946;2022-07-06T11:47:04;22.60;58.90
47606;DHT22;55448;51.330;4.946;2022-07-06T11:49:31;22.50;58.70
47606;DHT22;55448;51.330;4.946;2022-07-06T11:51:57;22.20;59.60
47606;DHT22;55448;51.330;4.946;2022-07-06T11:54:23;21.90;57.80
47606;DHT22;55448;51.330;4.946;2022-07-06T11:56:54;21.50;60.00
47606;DHT22;55448;51.330;4.946;2022-07-06T11:59:22;21.60;59.90
47606;DHT22;55448;51.330;4.946;2022-07-06T12:01:48;21.80;59.10
47606;DHT22;55448;51.330;4.946;2022-07-06T12:04:14;21.90;58.80
47606;DHT22;55448;51.330;4.946;2022-07-06T12:06:40;21.60;59.00
47606;DHT22;55448;51.330;4.946;2022-07-06T12:09:08;21.20;60.30
47606;DHT22;55448;51.330;4.946;2022-07-06T12:11:35;22.10;60.20
47606;DHT22;55448;51.330;4.946;2022-07-06T12:14:12;23.00;58.40
47606;DHT22;55448;51.330;4.946;2022-07-06T12:16:39;22.30;58.60
47606;DHT22;55448;51.330;4.946;2022-07-06T12:19:05;22.30;58.70
47606;DHT22;55448;51.330;4.946;2022-07-06T12:21:34;22.80;60.00
47606;DHT22;55448;51.330;4.946;2022-07-06T12:24:00;23.20;56.80
47606;DHT22;55448;51.330;4.946;2022-07-06T12:26:27;22.60;58.10
47606;DHT22;55448;51.330;4.946;2022-07-06T12:29:05;22.40;59.90
47606;DHT22;55448;51.330;4.946;2022-07-06T12:31:40;22.20;60.10
47606;DHT22;55448;51.330;4.946;2022-07-06T12:34:12;22.60;59.00
47606;DHT22;55448;51.330;4.946;2022-07-06T12:36:48;23.10;58.40
47606;DHT22;55448;51.330;4.946;2022-07-06T12:39:16;23.10;57.70
47606;DHT22;55448;51.330;4.946;2022-07-06T12:41:48;23.50;57.00
47606;DHT22;55448;51.330;4.946;2022-07-06T12:44:17;23.60;56.90
47606;DHT22;55448;51.330;4.946;2022-07-06T12:46:43;22.70;55.50
47606;DHT22;55448;51.330;4.946;2022-07-06T12:49:23;22.80;57.90
47606;DHT22;55448;51.330;4.946;2022-07-06T12:54:21;23.40;55.20
47606;DHT22;55448;51.330;4.946;2022-07-06T12:56:58;24.20;54.30
47606;DHT22;55448;51.330;4.946;2022-07-06T12:59:24;23.60;54.90
47606;DHT22;55448;51.330;4.946;2022-07-06T13:01:50;23.30;54.50
47606;DHT22;55448;51.330;4.946;2022-07-06T13:04:21;23.20;55.50
47606;DHT22;55448;51.330;4.946;2022-07-06T13:06:47;23.40;54.80
47606;DHT22;55448;51.330;4.946;2022-07-06T13:09:13;23.10;54.40
47606;DHT22;55448;51.330;4.946;2022-07-06T13:11:40;23.60;55.00
47606;DHT22;55448;51.330;4.946;2022-07-06T13:14:06;23.90;53.40
47606;DHT22;55448;51.330;4.946;2022-07-06T13:16:31;24.20;52.10
47606;DHT22;55448;51.330;4.946;2022-07-06T13:19:00;24.20;52.70
47606;DHT22;55448;51.330;4.946;2022-07-06T13:21:25;23.80;52.30
47606;DHT22;55448;51.330;4.946;2022-07-06T13:23:51;24.10;53.50
47606;DHT22;55448;51.330;4.946;2022-07-06T13:26:17;24.80;51.70
47606;DHT22;55448;51.330;4.946;2022-07-06T13:28:43;24.70;54.20
47606;DHT22;55448;51.330;4.946;2022-07-06T13:31:08;24.50;52.00
47606;DHT22;55448;51.330;4.946;2022-07-06T13:33:34;24.60;53.30
47606;DHT22;55448;51.330;4.946;2022-07-06T13:36:01;24.40;52.20
47606;DHT22;55448;51.330;4.946;2022-07-06T13:38:27;24.10;52.30
47606;DHT22;55448;51.330;4.946;2022-07-06T13:40:53;23.20;54.50
47606;DHT22;55448;51.330;4.946;2022-07-06T13:43:19;24.00;53.00
47606;DHT22;55448;51.330;4.946;2022-07-06T13:45:48;24.90;53.40
47606;DHT22;55448;51.330;4.946;2022-07-06T13:48:14;24.70;51.70
47606;DHT22;55448;51.330;4.946;2022-07-06T13:50:40;25.70;51.10
47606;DHT22;55448;51.330;4.946;2022-07-06T13:53:06;26.20;51.30
47606;DHT22;55448;51.330;4.946;2022-07-06T13:55:32;25.80;52.20
47606;DHT22;55448;51.330;4.946;2022-07-06T13:57:59;25.00;52.40
47606;DHT22;55448;51.330;4.946;2022-07-06T14:00:24;24.60;53.50
47606;DHT22;55448;51.330;4.946;2022-07-06T14:02:50;24.70;51.50
47606;DHT22;55448;51.330;4.946;2022-07-06T14:05:16;24.60;53.90
47606;DHT22;55448;51.330;4.946;2022-07-06T14:07:42;24.20;52.10
47606;DHT22;55448;51.330;4.946;2022-07-06T14:10:08;25.10;52.30
47606;DHT22;55448;51.330;4.946;2022-07-06T14:12:33;25.30;52.20
47606;DHT22;55448;51.330;4.946;2022-07-06T14:15:00;25.70;51.50
47606;DHT22;55448;51.330;4.946;2022-07-06T14:17:26;25.30;51.50
47606;DHT22;55448;51.330;4.946;2022-07-06T14:19:52;25.10;52.30
47606;DHT22;55448;51.330;4.946;2022-07-06T14:22:18;25.20;51.20
47606;DHT22;55448;51.330;4.946;2022-07-06T14:24:43;24.70;51.90
47606;DHT22;55448;51.330;4.946;2022-07-06T14:27:09;25.10;52.10
47606;DHT22;55448;51.330;4.946;2022-07-06T14:29:35;25.00;52.60
47606;DHT22;55448;51.330;4.946;2022-07-06T14:32:00;24.70;52.80
47606;DHT22;55448;51.330;4.946;2022-07-06T14:34:27;25.60;51.70
47606;DHT22;55448;51.330;4.946;2022-07-06T14:36:53;25.90;51.50
47606;DHT22;55448;51.330;4.946;2022-07-06T14:39:19;25.60;51.60
47606;DHT22;55448;51.330;4.946;2022-07-06T14:41:44;25.80;50.00
47606;DHT22;55448;51.330;4.946;2022-07-06T14:44:10;26.10;50.10
47606;DHT22;55448;51.330;4.946;2022-07-06T14:46:36;25.10;51.40
47606;DHT22;55448;51.330;4.946;2022-07-06T14:49:01;25.00;52.10
47606;DHT22;55448;51.330;4.946;2022-07-06T14:51:27;25.40;50.90
47606;DHT22;55448;51.330;4.946;2022-07-06T14:53:53;25.90;50.60
47606;DHT22;55448;51.330;4.946;2022-07-06T14:56:19;26.60;49.30
47606;DHT22;55448;51.330;4.946;2022-07-06T14:58:44;26.50;50.60
47606;DHT22;55448;51.330;4.946;2022-07-06T15:01:10;25.30;51.30
47606;DHT22;55448;51.330;4.946;2022-07-06T15:03:36;24.00;54.40
47606;DHT22;55448;51.330;4.946;2022-07-06T15:06:02;24.20;53.30
47606;DHT22;55448;51.330;4.946;2022-07-06T15:08:28;24.60;54.30
47606;DHT22;55448;51.330;4.946;2022-07-06T15:10:54;24.90;53.50
47606;DHT22;55448;51.330;4.946;2022-07-06T15:13:20;25.00;53.90
47606;DHT22;55448;51.330;4.946;2022-07-06T15:15:46;25.60;52.40
47606;DHT22;55448;51.330;4.946;2022-07-06T15:18:12;25.90;51.50
47606;DHT22;55448;51.330;4.946;2022-07-06T15:20:38;25.00;52.00
47606;DHT22;55448;51.330;4.946;2022-07-06T15:23:03;24.40;54.70
47606;DHT22;55448;51.330;4.946;2022-07-06T15:25:29;24.20;54.10
47606;DHT22;55448;51.330;4.946;2022-07-06T15:27:56;24.40;55.50
47606;DHT22;55448;51.330;4.946;2022-07-06T15:30:22;24.60;55.90
47606;DHT22;55448;51.330;4.946;2022-07-06T15:32:48;24.40;56.00
47606;DHT22;55448;51.330;4.946;2022-07-06T15:35:15;24.00;56.60